• Join FlightAware (Why Join?)
  • Login
  • US Flag 
10:22AM EDT


 

Airport Tracker/Info


-or-


 

Live Flight TrackerFlight Track Log ✈ N52643 ✈ 27-May-2014 ✈ KLHQ - KCPS

Flight Track Log - Related Links

Times and Time Zones

All times are in EDT time to prevent confusion due to time zone crossing. See the N52643 flight status page for this flight to view local times or setup timezone preferences in your user account.

Time Position Orientation Groundspeed Altitude Reporting Facility
EDT Latitude Longitude Course Direction KTS MPH feet Rate Location/Type
01:13PM 39.7536 -82.6717 218° Southwest 63 72 1,200  Level Indianapolis Center
01:14PM 39.7303 -82.6953 218° Southwest 81 93 1,900 480 Climbing Indianapolis Center
01:15PM 39.7236 -82.7008 213° Southwest 87 100 2,100 480 Climbing Indianapolis Center
01:15PM 39.7114 -82.7167 225° Southwest 90 104 2,400 480 Climbing Indianapolis Center
01:16PM 39.7044 -82.7214 208° Southwest 86 99 2,600 480 Climbing Indianapolis Center
01:16PM 39.7000 -82.7286 231° Southwest 90 104 2,700 360 Climbing Indianapolis Center
01:17PM 39.6867 -82.7433 220° Southwest 87 100 3,000 420 Climbing Indianapolis Center
01:17PM 39.6817 -82.7664 254° West 81 93 3,300 480 Climbing Indianapolis Center
01:18PM 39.6811 -82.7783 267° West 87 100 3,500 420 Climbing Indianapolis Center
01:18PM 39.6808 -82.7964 269° West 88 101 3,700 360 Climbing Indianapolis Center
01:19PM 39.6797 -82.8108 264° West 88 101 3,900 240 Climbing Indianapolis Center
01:19PM 39.6778 -82.8283 262° West 90 104 4,000 60 Climbing Indianapolis Center
01:20PM 39.6753 -82.8425 257° West 88 101 4,000  Level Indianapolis Center
01:21PM 39.6700 -82.8808 260° West 98 113 4,000  Level Indianapolis Center
01:21PM 39.6664 -82.9056 259° West 123 142 4,000  Level Indianapolis Center
01:22PM 39.6653 -82.9222 265° West 109 125 4,000  Level Indianapolis Center
01:22PM 39.6628 -82.9431 261° West 112 129 4,000  Level Indianapolis Center
01:23PM 39.6597 -82.9628 259° West 110 127 4,000  Level Indianapolis Center
01:24PM 39.6558 -82.9933 261° West 115 132 4,000  Level Indianapolis Center
01:24PM 39.6553 -83.0039 266° West 111 128 4,000  Level Indianapolis Center
01:24PM 39.6533 -83.0203 261° West 119 137 4,000  Level Indianapolis Center
01:25PM 39.6483 -83.0567 260° West 118 136 4,000  Level Indianapolis Center
01:26PM 39.6456 -83.0789 261° West 129 148 4,000  Level Indianapolis Center
01:26PM 39.6433 -83.1028 263° West 124 143 4,000  Level Indianapolis Center
01:27PM 39.6411 -83.1242 262° West 123 142 4,000  Level Indianapolis Center
01:27PM 39.6383 -83.1453 260° West 124 143 4,000  Level Indianapolis Center
01:27PM 39.6378 -83.1592 267° West 116 133 4,000  Level Indianapolis Center
01:28PM 39.6331 -83.1853 257° West 119 137 4,000  Level Indianapolis Center
01:28PM 39.6314 -83.2042 263° West 114 131 4,000  Level Indianapolis Center
01:29PM 39.6294 -83.2264 264° West 116 133 4,000  Level Indianapolis Center
01:29PM 39.6281 -83.2389 262° West 112 129 4,000  Level Indianapolis Center
01:30PM 39.6239 -83.2678 259° West 116 133 4,000  Level Indianapolis Center
01:30PM 39.6217 -83.2814 258° West 120 138 4,000  Level Indianapolis Center
01:31PM 39.6186 -83.3103 262° West 116 133 4,000  Level Indianapolis Center
01:32PM 39.6131 -83.3631 262° West 118 136 4,000  Level Indianapolis Center
01:33PM 39.6072 -83.4067 260° West 120 138 4,000  Level Indianapolis Center
01:34PM 39.6014 -83.4486 260° West 120 138 4,000  Level Indianapolis Center
01:36PM 39.5978 -83.5306 264° West 117 135 4,000  Level Indianapolis Center
01:37PM 39.6006 -83.5731 275° West 117 135 4,000  Level Indianapolis Center
01:38PM 39.6028 -83.6181 274° West 113 130 4,000  Level Indianapolis Center
01:39PM 39.6033 -83.6536 271° West 108 124 4,000  Level Indianapolis Center
01:39PM 39.6047 -83.6533 North 115 132 4,000  Level Indianapolis Center
01:40PM 39.6069 -83.7003 274° West 120 138 4,000  Level Indianapolis Center
01:41PM 39.6094 -83.7389 275° West 118 136 4,000  Level Indianapolis Center
01:42PM 39.6097 -83.7450 273° West 114 131 4,000  Level Indianapolis Center
01:43PM 39.6108 -83.7853 272° West 119 137 4,000  Level Indianapolis Center
01:43PM 39.6133 -83.8239 275° West 118 136 4,000  Level Indianapolis Center
01:44PM 39.6131 -83.8267 263° West 114 131 4,000  Level Indianapolis Center
01:44PM 39.6156 -83.8622 275° West 115 132 4,000  Level Indianapolis Center
01:45PM 39.6161 -83.8683 277° West 114 131 4,000  Level Indianapolis Center
01:45PM 39.6192 -83.9092 276° West 122 140 4,000  Level Indianapolis Center
01:46PM 39.6197 -83.9111 290° West 114 131 4,000  Level Indianapolis Center
01:47PM 39.6231 -83.9558 276° West 118 136 4,000  Level Indianapolis Center
01:48PM 39.6267 -84.0056 275° West 119 137 4,000  Level Indianapolis Center
01:49PM 39.6281 -84.0467 273° West 111 128 4,000  Level Indianapolis Center
01:49PM 39.6286 -84.0794 271° West 115 132 4,000  Level Indianapolis Center
01:50PM 39.6292 -84.0867 276° West 115 132 4,000  Level Indianapolis Center
01:51PM 39.6308 -84.1206 274° West 126 145 4,000  Level Indianapolis Center
01:51PM 39.6317 -84.1314 276° West 116 133 4,000  Level Indianapolis Center
01:52PM 39.6344 -84.1647 276° West 123 142 4,000  Level Indianapolis Center
01:52PM 39.6356 -84.1747 278° West 118 136 4,000  Level Indianapolis Center
01:53PM 39.6372 -84.2169 273° West 122 140 4,000  Level Indianapolis Center
01:53PM 39.6383 -84.2192 303° West 119 137 4,000  Level Indianapolis Center
01:54PM 39.6339 -84.2633 263° West 120 138 4,000  Level Indianapolis Center
01:55PM 39.6253 -84.3081 256° West 122 140 4,000  Level Indianapolis Center
01:56PM 39.6164 -84.3631 258° West 126 145 4,000  Level Indianapolis Center
01:57PM 39.6089 -84.4069 258° West 127 146 4,000  Level Indianapolis Center
01:58PM 39.6036 -84.4489 261° West 125 144 4,000  Level Indianapolis Center
01:59PM 39.5986 -84.4900 261° West 122 140 4,000  Level Indianapolis Center
02:00PM 39.5911 -84.5281 256° West 115 132 4,000  Level Indianapolis Center
02:01PM 39.5856 -84.5658 259° West 110 127 4,000  Level Indianapolis Center
02:02PM 39.5786 -84.6083 258° West 113 130 4,000  Level Indianapolis Center
02:03PM 39.5714 -84.6600 260° West 118 136 4,000  Level Indianapolis Center
02:04PM 39.5653 -84.7039 260° West 118 136 4,000  Level Indianapolis Center
02:05PM 39.5581 -84.7450 257° West 119 137 4,000  Level Indianapolis Center
02:06PM 39.5500 -84.7867 256° West 119 137 4,000  Level Indianapolis Center
02:07PM 39.5444 -84.8292 260° West 119 137 4,000  Level Indianapolis Center
02:08PM 39.5378 -84.8742 259° West 119 137 4,000  Level Indianapolis Center
02:09PM 39.5311 -84.9142 258° West 118 136 4,000  Level Indianapolis Center
02:10PM 39.5242 -84.9522 257° West 116 133 4,000  Level Indianapolis Center
02:11PM 39.5186 -84.9922 260° West 116 133 4,000  Level Indianapolis Center
02:12PM 39.5128 -85.0303 259° West 114 131 4,000  Level Indianapolis Center
02:13PM 39.5069 -85.0692 259° West 114 131 4,000  Level Indianapolis Center
02:14PM 39.5003 -85.1117 259° West 114 131 4,000  Level Indianapolis Center
02:15PM 39.4922 -85.1647 259° West 121 139 4,000  Level Indianapolis Center
02:16PM 39.4847 -85.2058 257° West 121 139 4,000  Level Indianapolis Center
02:18PM 39.4781 -85.2464 258° West 120 138 4,000  Level Indianapolis Center
02:19PM 39.4717 -85.2869 258° West 117 135 4,000  Level Indianapolis Center
02:20PM 39.4664 -85.3278 261° West 117 135 4,000  Level Indianapolis Center
02:21PM 39.4586 -85.3681 256° West 117 135 4,000  Level Indianapolis Center
02:22PM 39.4514 -85.4094 257° West 117 135 4,000  Level Indianapolis Center
02:23PM 39.4442 -85.4578 259° West 117 135 4,000  Level Indianapolis Center
02:24PM 39.4458 -85.5000 273° West 117 135 4,000  Level Indianapolis Center
02:25PM 39.4500 -85.5406 278° West 117 135 4,000  Level Indianapolis Center
02:26PM 39.4511 -85.5817 272° West 117 135 4,000  Level Indianapolis Center
02:27PM 39.4536 -85.6244 274° West 117 135 4,000  Level Indianapolis Center
02:28PM 39.4547 -85.6719 272° West 125 144 4,000  Level Indianapolis Center
02:29PM 39.4569 -85.7156 274° West 125 144 4,000  Level Indianapolis Center
02:30PM 39.4589 -85.7647 273° West 122 140 4,000  Level Indianapolis Center
02:31PM 39.4567 -85.8069 266° West 118 136 4,000  Level Indianapolis Center
02:32PM 39.4514 -85.8542 262° West 123 142 4,000  Level Indianapolis Center
02:33PM 39.4453 -85.8981 260° West 124 143 4,000  Level Indianapolis Center
02:34PM 39.4414 -85.9378 263° West 120 138 4,000  Level Indianapolis Center
02:35PM 39.4358 -85.9811 261° West 120 138 4,000  Level Indianapolis Center
02:36PM 39.4347 -86.0236 268° West 120 138 4,000  Level Indianapolis Center
02:37PM 39.4400 -86.0725 278° West 119 137 4,000  Level Indianapolis Center
02:38PM 39.4425 -86.1128 275° West 118 136 4,000  Level Indianapolis Center
02:39PM 39.4433 -86.1525 272° West 115 132 4,000  Level Indianapolis Center
02:40PM 39.4436 -86.1967 270° West 116 133 4,000  Level Indianapolis Center
02:41PM 39.4422 -86.2392 268° West 119 137 4,000  Level Indianapolis Center
02:42PM 39.4333 -86.2789 254° West 116 133 4,000  Level Indianapolis Center
02:43PM 39.4269 -86.3200 259° West 116 133 4,000  Level Indianapolis Center
02:44PM 39.4150 -86.3667 252° West 116 133 4,000  Level Indianapolis Center
02:45PM 39.4078 -86.4069 257° West 115 132 4,000  Level Indianapolis Center
02:46PM 39.3981 -86.4489 253° West 116 133 4,000  Level Indianapolis Center
02:47PM 39.3892 -86.4917 255° West 119 137 4,000  Level Indianapolis Center
02:48PM 39.3811 -86.5369 257° West 124 143 4,000  Level Indianapolis Center
02:49PM 39.3722 -86.5817 256° West 126 145 4,000  Level Indianapolis Center
02:50PM 39.3636 -86.6211 254° West 122 140 4,000  Level Indianapolis Center
02:52PM 39.3528 -86.6681 253° West 116 133 4,000  Level Indianapolis Center
02:53PM 39.3444 -86.7083 255° West 116 133 4,000  Level Indianapolis Center
02:54PM 39.3369 -86.7500 257° West 116 133 4,000  Level Indianapolis Center
02:55PM 39.3272 -86.7894 252° West 116 133 4,000  Level Indianapolis Center
02:56PM 39.3186 -86.8311 255° West 116 133 4,000  Level Indianapolis Center
02:57PM 39.3111 -86.8708 256° West 116 133 4,000  Level Indianapolis Center
02:58PM 39.3014 -86.9206 256° West 117 135 4,000  Level Indianapolis Center
02:59PM 39.2875 -86.9817 254° West 118 136 4,000  Level Kansas City Center
03:00PM 39.2783 -87.0250 255° West 118 136 4,000  Level Kansas City Center
03:01PM 39.2747 -87.0656 263° West 118 136 4,000 -60 Level Kansas City Center
03:02PM 39.2664 -87.1175 258° West 118 136 3,900 -60 Descending Kansas City Center
03:03PM 39.2558 -87.1589 252° West 118 136 3,900  Level Kansas City Center
03:04PM 39.2481 -87.2008 257° West 118 136 3,900  Level Kansas City Center
03:06PM 39.2386 -87.2425 254° West 118 136 3,900  Level Kansas City Center
03:07PM 39.2300 -87.2861 256° West 119 137 3,900  Level Kansas City Center
03:08PM 39.2200 -87.3297 254° West 121 139 3,900  Level Kansas City Center
03:09PM 39.2086 -87.3833 255° West 124 143 3,900  Level Kansas City Center
03:10PM 39.1986 -87.4281 254° West 125 144 3,900  Level Kansas City Center
03:11PM 39.1894 -87.4703 254° West 125 144 3,900  Level Kansas City Center
03:12PM 39.1800 -87.5108 253° West 125 144 3,900  Level Kansas City Center
03:13PM 39.1725 -87.5517 257° West 123 142 3,900  Level Kansas City Center
03:14PM 39.1639 -87.5908 254° West 120 138 3,900  Level Kansas City Center
03:15PM 39.1544 -87.6317 253° West 120 138 3,900  Level Kansas City Center
03:16PM 39.1439 -87.6828 255° West 120 138 3,900  Level Kansas City Center
03:17PM 39.1342 -87.7247 253° West 120 138 3,900  Level Kansas City Center
03:18PM 39.1250 -87.7675 255° West 120 138 3,900  Level Kansas City Center
03:19PM 39.1147 -87.8100 253° West 120 138 3,900  Level Kansas City Center
03:20PM 39.1056 -87.8547 255° West 122 140 3,900  Level Kansas City Center
03:21PM 39.0967 -87.9003 256° West 125 144 3,900  Level Kansas City Center
03:22PM 39.0844 -87.9511 253° West 126 145 4,000  Climbing Kansas City Center
03:23PM 39.0767 -87.9950 257° West 126 145 4,000  Level Kansas City Center
03:24PM 39.0669 -88.0375 254° West 126 145 4,000  Level Kansas City Center
03:25PM 39.0558 -88.0778 250° West 126 145 4,000  Level Kansas City Center
03:26PM 39.0464 -88.1217 255° West 125 144 4,000  Level Kansas City Center
03:27PM 39.0367 -88.1647 254° West 125 144 4,000  Level Kansas City Center
03:28PM 39.0275 -88.2047 254° West 124 143 4,000  Level Kansas City Center
03:29PM 39.0175 -88.2522 255° West 120 138 4,000  Level Kansas City Center
03:30PM 39.0097 -88.2928 256° West 120 138 4,000  Level Kansas City Center
03:31PM 38.9992 -88.3350 252° West 120 138 4,000  Level Kansas City Center
03:32PM 38.9892 -88.3789 254° West 121 139 4,000  Level Kansas City Center
03:33PM 38.9803 -88.4208 255° West 121 139 4,000  Level Kansas City Center
03:34PM 38.9703 -88.4647 254° West 121 139 4,000  Level Kansas City Center
03:36PM 38.9589 -88.5167 254° West 122 140 4,000  Level Kansas City Center
03:37PM 38.9483 -88.5617 253° West 124 143 4,000  Level Kansas City Center
03:38PM 38.9386 -88.6064 254° West 126 145 4,000  Level Kansas City Center
03:39PM 38.9281 -88.6442 250° West 127 146 4,000  Level Kansas City Center
03:40PM 38.9164 -88.6983 255° West 127 146 4,000  Level Kansas City Center
03:41PM 38.9086 -88.7422 257° West 128 147 4,000  Level Kansas City Center
03:42PM 38.8981 -88.7850 252° West 128 147 4,000  Level Kansas City Center
03:43PM 38.8858 -88.8275 250° West 128 147 4,000  Level Kansas City Center
03:44PM 38.8767 -88.8703 255° West 128 147 4,000  Level Kansas City Center
03:45PM 38.8661 -88.9139 253° West 128 147 4,000  Level Kansas City Center
03:46PM 38.8536 -88.9647 252° West 128 147 4,000  Level Kansas City Center
03:47PM 38.8442 -89.0069 254° West 127 146 4,000  Level Kansas City Center
03:48PM 38.8344 -89.0489 253° West 124 143 4,000  Level Kansas City Center
03:49PM 38.8261 -89.0950 257° West 128 147 4,000  Level Kansas City Center
03:50PM 38.8144 -89.1372 250° West 128 147 4,000  Level Kansas City Center
03:51PM 38.8036 -89.1811 252° West 128 147 4,000  Level Kansas City Center
03:52PM 38.7919 -89.2319 254° West 127 146 4,000  Level Kansas City Center
03:53PM 38.7811 -89.2750 252° West 127 146 4,000  Level Kansas City Center
03:54PM 38.7792 -89.3228 267° West 125 144 4,000  Level Kansas City Center
03:55PM 38.7767 -89.3694 266° West 127 146 4,000  Level Kansas City Center
03:56PM 38.7739 -89.4178 266° West 127 146 4,000  Level Kansas City Center
03:57PM 38.7706 -89.4628 265° West 127 146 4,000  Level Kansas City Center
03:58PM 38.7678 -89.5128 266° West 128 147 4,000  Level Kansas City Center
03:59PM 38.7650 -89.5589 266° West 128 147 4,000  Level Kansas City Center
04:00PM 38.7600 -89.6083 263° West 129 148 4,000  Level Kansas City Center
04:01PM 38.7578 -89.6539 266° West 129 148 4,000 -120 Level Kansas City Center
04:02PM 38.7550 -89.6944 265° West 129 148 3,800 -300 Descending Kansas City Center
04:03PM 38.7339 -89.7486 243° Southwest 142 163 3,400 -420 Descending Kansas City Center
04:04PM 38.7164 -89.7942 244° Southwest 142 163 3,000 -240 Descending Kansas City Center
04:06PM 38.6994 -89.8350 242° Southwest 132 152 2,900 -60 Descending Kansas City Center
04:07PM 38.6847 -89.8722 243° Southwest 123 142 2,900 -60 Level Kansas City Center
04:08PM 38.6694 -89.9097 242° Southwest 120 138 2,800 -300 Descending Kansas City Center
04:09PM 38.6508 -89.9561 243° Southwest 126 145 2,300 -480 Descending Kansas City Center
04:10PM 38.6333 -90.0003 243° Southwest 127 146 1,900 -420 Descending Kansas City Center
04:11PM 38.6181 -90.0392 243° Southwest 127 146 1,500 -360 Descending Kansas City Center
04:12PM 38.6028 -90.0769 243° Southwest 123 142 1,200 -180 Descending Kansas City Center
04:13PM 38.5903 -90.1092 244° Southwest 104 120 1,200  Level Kansas City Center
04:14PM 38.5792 -90.1389 244° Southwest 96 110 1,200 -180 Level Kansas City Center
04:15PM 38.5869 -90.1711 287° West 94 108 900 -360 Descending Kansas City Center
04:16PM 38.5675 -90.1594 155° Southeast 87 100 500 -420 Descending Kansas City Center
04:18PM 38.5704 -90.1551 96° East  Level Estimated